Terminal Aerodrome Forecast
Issued by NWS Amarillo, TX

Current Version | Previous Version | Text Only | Print | Product List | Glossary On
Versions: 1 2 3 4 5 6 7 8 9 10 11 12 13 14 15
000
FTUS44 KAMA 050520
TAFGUY
TAF
KGUY 050520Z 0506/0606 18012KT P6SM SCT100 BKN200
     FM051500 20019G26KT P6SM SCT200
     FM060100 17012KT P6SM FEW100 BKN200=

USA.gov is the U.S. government's official web portal to all federal, state and local government web resources and services.